createdAt,value
2017-01-11T00:00:02.602Z,0
2017-01-11T00:10:03.042Z,0
2017-01-11T00:20:02.524Z,0
2017-01-11T00:30:02.945Z,0
2017-01-11T00:40:02.347Z,0
2017-01-11T00:50:02.749Z,0
2017-01-11T01:00:03.188Z,0
2017-01-11T01:10:02.586Z,0
2017-01-11T01:20:03.111Z,0
2017-01-11T01:30:02.524Z,0
2017-01-11T01:40:02.940Z,0
2017-01-11T01:50:02.374Z,0
2017-01-11T02:00:02.773Z,0
2017-01-11T02:10:03.203Z,0
2017-01-11T02:20:02.726Z,0
2017-01-11T02:30:03.140Z,0
2017-01-11T02:40:02.460Z,0
2017-01-11T02:50:02.893Z,0
2017-01-11T03:00:02.288Z,0
2017-01-11T03:10:02.655Z,0
2017-01-11T03:20:03.154Z,0
2017-01-11T03:30:02.516Z,0
2017-01-11T03:40:02.953Z,0
2017-01-11T03:50:02.378Z,0
2017-01-11T04:00:02.782Z,0
2017-01-11T04:10:03.205Z,0
2017-01-11T04:20:02.739Z,0
2017-01-11T04:30:03.114Z,0
2017-01-11T04:40:02.533Z,0
2017-01-11T04:50:03.054Z,0
2017-01-11T05:00:02.478Z,0
2017-01-11T05:10:02.909Z,0
2017-01-11T05:20:02.397Z,0
2017-01-11T05:30:02.791Z,0
2017-01-11T05:40:03.166Z,0
2017-01-11T05:50:02.598Z,0
2017-01-11T06:00:02.606Z,0
2017-01-11T06:10:03.022Z,0
2017-01-11T06:20:02.556Z,0
2017-01-11T06:30:02.923Z,0
2017-01-11T06:40:02.328Z,0
2017-01-11T06:50:02.742Z,0
2017-01-11T07:00:03.173Z,514
2017-01-11T07:10:02.567Z,1285
2017-01-11T07:20:03.095Z,6168
2017-01-11T07:30:02.500Z,7196
2017-01-11T07:40:02.922Z,16705
2017-01-11T07:50:02.354Z,13621
2017-01-11T08:00:02.740Z,18504
2017-01-11T08:10:03.156Z,22359
2017-01-11T08:20:02.611Z,43433
2017-01-11T08:30:02.990Z,61937
2017-01-11T08:40:02.365Z,9252
2017-01-11T08:50:02.754Z,19532
2017-01-11T09:00:03.169Z,26214
2017-01-11T09:10:02.542Z,6425
2017-01-11T09:20:03.054Z,20560
2017-01-11T09:30:02.484Z,37265
2017-01-11T09:40:02.905Z,60652
2017-01-11T09:50:02.330Z,54484
2017-01-11T10:00:02.735Z,34695
2017-01-11T10:10:03.154Z,51400
2017-01-11T10:20:02.539Z,23901
2017-01-11T10:30:02.909Z,13364
2017-01-11T10:40:02.282Z,54484
2017-01-11T10:50:02.695Z,57311
2017-01-11T11:00:03.074Z,57568
2017-01-11T11:10:02.462Z,257
2017-01-11T11:20:02.964Z,46003
2017-01-11T11:30:02.366Z,57825
2017-01-11T11:40:02.745Z,4626
2017-01-11T11:50:03.192Z,64764
2017-01-11T12:00:02.532Z,46517
2017-01-11T12:10:02.933Z,56283
2017-01-11T12:20:02.445Z,2056
2017-01-11T12:30:02.857Z,58082
2017-01-11T12:40:03.269Z,52685
2017-01-11T12:50:02.719Z,60138
2017-01-11T13:00:03.097Z,54484
2017-01-11T13:10:02.522Z,50372
2017-01-11T13:20:03.109Z,41891
2017-01-11T13:30:02.928Z,32896
2017-01-11T13:40:02.384Z,37265
2017-01-11T13:50:02.797Z,4112
2017-01-11T14:00:03.180Z,32639
2017-01-11T14:10:02.601Z,27499
2017-01-11T14:20:03.114Z,43690
2017-01-11T14:30:02.515Z,9252
2017-01-11T14:40:02.932Z,50629
2017-01-11T14:50:02.357Z,27242
2017-01-11T15:00:02.723Z,34438
2017-01-11T15:10:03.166Z,34181
2017-01-11T15:20:02.638Z,15163
2017-01-11T15:30:03.071Z,5654
2017-01-11T15:40:02.485Z,3598
2017-01-11T15:50:02.931Z,771
2017-01-11T16:00:02.372Z,514
2017-01-11T16:10:02.780Z,0
2017-01-11T16:20:03.313Z,0
2017-01-11T16:30:02.721Z,0
2017-01-11T16:40:03.235Z,0
2017-01-11T16:50:02.762Z,0
2017-01-11T17:00:03.154Z,0
2017-01-11T17:10:03.760Z,0
2017-01-11T17:20:02.442Z,0
2017-01-11T17:30:04.055Z,0
2017-01-11T17:40:02.434Z,0
2017-01-11T17:50:02.861Z,0
2017-01-11T18:00:03.274Z,0
2017-01-11T18:10:02.675Z,0
2017-01-11T18:20:03.448Z,0
2017-01-11T18:30:02.875Z,0
2017-01-11T18:40:02.298Z,0
2017-01-11T18:50:02.713Z,0
2017-01-11T19:00:03.114Z,0
2017-01-11T19:10:02.509Z,0
2017-01-11T19:20:03.142Z,0
2017-01-11T19:30:02.509Z,0
2017-01-11T19:40:02.914Z,0
2017-01-11T19:50:02.366Z,0
2017-01-11T20:00:02.766Z,0
2017-01-11T20:10:03.167Z,0
2017-01-11T20:20:02.694Z,0
2017-01-11T20:30:03.175Z,0
2017-01-11T20:40:02.531Z,0
2017-01-11T20:50:03.112Z,0
2017-01-11T21:00:02.572Z,0
2017-01-11T21:10:03.029Z,0
2017-01-11T21:20:02.612Z,0
2017-01-11T21:30:03.059Z,0
2017-01-11T21:40:02.532Z,0
2017-01-11T21:50:02.995Z,0
2017-01-11T22:00:02.411Z,0
2017-01-11T22:10:02.835Z,0
2017-01-11T22:20:02.344Z,0
2017-01-11T22:30:02.748Z,0
2017-01-11T22:40:03.174Z,0
2017-01-11T22:50:02.625Z,0
2017-01-11T23:00:03.084Z,0
2017-01-11T23:10:02.482Z,0
2017-01-11T23:20:02.967Z,0
2017-01-11T23:30:02.376Z,0
2017-01-11T23:40:02.787Z,0
2017-01-11T23:50:03.217Z,0
